Time;durP1;ratioP1;P1;durP2;ratioP2;P2;SDS_P1;SDS_P2;PMS_P1;PMS_P2;Temp;Humidity;BMP_temperature;BMP_pressure;BME280_temperature;BME280_humidity;BME280_pressure;Samples;Min_cycle;Max_cycle;Signal;HPM_P1;HPM_P2
2023/07/06 00:01:26;;;;;;;;;;;11.10;99.90;;;;;;5102999;27;19933;-83
2023/07/06 00:03:56;;;;;;;;;;;11.10;99.90;;;;;;5118546;27;19924;-81
2023/07/06 00:06:28;;;;;;;;;;;11.10;99.90;;;;;;5118346;27;19972;-79
2023/07/06 00:09:00;;;;;;;;;;;11.10;99.90;;;;;;5102541;27;19930;-79
2023/07/06 00:11:27;;;;;;;;;;;11.10;99.90;;;;;;5117443;27;19924;-83
2023/07/06 00:13:52;;;;;;;;;;;11.10;99.90;;;;;;5117192;27;19924;-80
2023/07/06 00:16:21;;;;;;;;;;;11.10;99.90;;;;;;5117752;27;19926;-80
2023/07/06 00:18:47;;;;;;;;;;;11.10;99.90;;;;;;5101625;27;19974;-79
2023/07/06 00:21:13;;;;;;;;;;;11.10;99.90;;;;;;5100778;27;19924;-83
2023/07/06 00:23:43;;;;;;;;;;;11.10;99.90;;;;;;5135142;27;19927;-79
2023/07/06 00:26:12;;;;;;;;;;;11.10;99.90;;;;;;5100588;27;20042;-78
2023/07/06 00:28:39;;;;;;;;;;;11.00;99.90;;;;;;5118200;27;20380;-82
2023/07/06 00:31:10;;;;;;;;;;;11.00;99.90;;;;;;5118574;27;20526;-79
2023/07/06 00:33:36;;;;;;;;;;;10.90;99.90;;;;;;5118283;27;19940;-83
2023/07/06 00:36:04;;;;;;;;;;;10.90;99.90;;;;;;5118282;27;19923;-80
2023/07/06 00:38:29;;;;;;;;;;;10.80;99.90;;;;;;5083751;27;19988;-78
2023/07/06 00:40:57;;;;;;;;;;;10.80;99.90;;;;;;5135799;27;20010;-80
2023/07/06 00:43:46;;;;;;;;;;;10.80;99.90;;;;;;5118229;27;19930;-81
2023/07/06 00:46:12;;;;;;;;;;;10.80;99.90;;;;;;5135680;27;19927;-79
2023/07/06 00:48:39;;;;;;;;;;;10.90;99.90;;;;;;5117991;27;20341;-80
2023/07/06 00:51:16;;;;;;;;;;;10.90;99.90;;;;;;5117369;27;20431;-80
2023/07/06 00:53:43;;;;;;;;;;;10.90;99.90;;;;;;5117961;27;19933;-83
2023/07/06 00:56:11;;;;;;;;;;;10.90;99.90;;;;;;5117407;27;19972;-82
2023/07/06 00:58:40;;;;;;;;;;;10.90;99.90;;;;;;5118163;27;19928;-82
2023/07/06 01:01:07;;;;;;;;;;;11.00;99.90;;;;;;5118096;27;20477;-80
2023/07/06 01:03:34;;;;;;;;;;;11.00;99.90;;;;;;5117817;27;19945;-78
2023/07/06 01:06:01;;;;;;;;;;;10.90;99.90;;;;;;5118039;27;19930;-82
2023/07/06 01:08:27;;;;;;;;;;;10.90;99.90;;;;;;5116980;27;20361;-80
2023/07/06 01:10:53;;;;;;;;;;;10.90;99.90;;;;;;5136167;27;20002;-81
2023/07/06 01:13:20;;;;;;;;;;;10.90;99.90;;;;;;5100122;27;19942;-82
2023/07/06 01:15:54;;;;;;;;;;;10.90;99.90;;;;;;5117356;27;19923;-80
2023/07/06 01:18:43;;;;;;;;;;;10.80;99.90;;;;;;5136885;27;19923;-79
2023/07/06 01:21:16;;;;;;;;;;;10.80;99.90;;;;;;5137710;27;20022;-80
2023/07/06 01:24:05;;;;;;;;;;;10.80;99.90;;;;;;5137018;27;20368;-82
2023/07/06 01:26:34;;;;;;;;;;;10.80;99.90;;;;;;5138608;27;20785;-82
2023/07/06 01:29:24;;;;;;;;;;;10.80;99.90;;;;;;5138184;27;19923;-81
2023/07/06 01:31:58;;;;;;;;;;;10.70;99.90;;;;;;5120920;27;19958;-79
2023/07/06 01:34:36;;;;;;;;;;;10.70;99.90;;;;;;5137107;27;19923;-85
2023/07/06 01:37:16;;;;;;;;;;;10.70;99.90;;;;;;5137225;27;19919;-82
2023/07/06 01:39:41;;;;;;;;;;;10.80;99.90;;;;;;5137195;27;20378;-81
2023/07/06 01:42:07;;;;;;;;;;;10.80;99.90;;;;;;5120249;27;19919;-82
2023/07/06 01:44:33;;;;;;;;;;;10.80;99.90;;;;;;5137206;27;19961;-83
2023/07/06 01:46:59;;;;;;;;;;;10.90;99.90;;;;;;5137343;27;19923;-78
2023/07/06 01:49:25;;;;;;;;;;;10.90;99.90;;;;;;5136576;27;20021;-78
2023/07/06 01:52:09;;;;;;;;;;;10.90;99.90;;;;;;5136846;27;19926;-79
2023/07/06 01:54:45;;;;;;;;;;;11.00;99.90;;;;;;5136541;27;20038;-83
2023/07/06 01:57:15;;;;;;;;;;;10.90;99.90;;;;;;5137365;27;20431;-83
2023/07/06 01:59:49;;;;;;;;;;;10.90;99.90;;;;;;5136761;27;19923;-83
2023/07/06 02:02:14;;;;;;;;;;;11.00;99.90;;;;;;5137087;27;19923;-81
2023/07/06 02:04:43;;;;;;;;;;;11.00;99.90;;;;;;5137036;27;19925;-79
2023/07/06 02:07:10;;;;;;;;;;;11.10;99.90;;;;;;5137001;27;19932;-79
2023/07/06 02:09:43;;;;;;;;;;;11.20;99.90;;;;;;5136933;27;20271;-81
2023/07/06 02:12:10;;;;;;;;;;;11.20;99.90;;;;;;5137924;27;19923;-78
2023/07/06 02:14:35;;;;;;;;;;;11.20;99.90;;;;;;5136973;27;20372;-80
2023/07/06 02:17:01;;;;;;;;;;;11.20;99.90;;;;;;5120211;27;19998;-78
2023/07/06 02:19:26;;;;;;;;;;;11.20;99.90;;;;;;5135440;27;20381;-79
2023/07/06 02:21:52;;;;;;;;;;;11.20;99.90;;;;;;5118843;27;19974;-82
2023/07/06 02:24:20;;;;;;;;;;;11.20;99.90;;;;;;5119168;27;19963;-80
2023/07/06 02:26:45;;;;;;;;;;;11.30;99.90;;;;;;5137011;27;19923;-79
2023/07/06 02:29:11;;;;;;;;;;;11.30;99.90;;;;;;5136197;27;20282;-81
2023/07/06 02:31:37;;;;;;;;;;;11.30;99.90;;;;;;5135746;27;19995;-82
2023/07/06 02:34:03;;;;;;;;;;;11.40;99.90;;;;;;5136263;27;20367;-81
2023/07/06 02:36:28;;;;;;;;;;;11.50;99.90;;;;;;5135593;27;19966;-80
2023/07/06 02:38:56;;;;;;;;;;;11.50;99.90;;;;;;5136034;27;19923;-79
2023/07/06 02:41:23;;;;;;;;;;;11.50;99.90;;;;;;5118623;27;19919;-78
2023/07/06 02:43:49;;;;;;;;;;;11.50;99.90;;;;;;5118939;27;19930;-78
2023/07/06 02:46:19;;;;;;;;;;;11.50;99.90;;;;;;5118828;27;19923;-82
2023/07/06 02:48:50;;;;;;;;;;;11.60;99.90;;;;;;5136097;27;19919;-85
2023/07/06 02:51:17;;;;;;;;;;;11.60;99.90;;;;;;5135799;27;19926;-82
2023/07/06 02:53:42;;;;;;;;;;;11.60;99.90;;;;;;5135335;27;19919;-83
2023/07/06 02:56:08;;;;;;;;;;;11.60;99.90;;;;;;5118787;27;19926;-81
2023/07/06 02:58:34;;;;;;;;;;;11.60;99.90;;;;;;5118168;27;19975;-79
2023/07/06 03:01:00;;;;;;;;;;;11.70;99.90;;;;;;5135536;27;19969;-81
2023/07/06 03:03:26;;;;;;;;;;;11.70;99.90;;;;;;5134852;27;19923;-83
2023/07/06 03:05:52;;;;;;;;;;;11.70;99.90;;;;;;5135365;27;19968;-79
2023/07/06 03:08:19;;;;;;;;;;;11.70;99.90;;;;;;5136028;27;20389;-78
2023/07/06 03:10:46;;;;;;;;;;;11.70;99.90;;;;;;5135237;27;19942;-83
2023/07/06 03:13:15;;;;;;;;;;;11.60;99.90;;;;;;5134639;27;19939;-79
2023/07/06 03:15:41;;;;;;;;;;;11.60;99.90;;;;;;5133938;27;19926;-80
2023/07/06 03:18:07;;;;;;;;;;;11.50;99.90;;;;;;5134549;27;19929;-80
2023/07/06 03:20:37;;;;;;;;;;;11.50;99.90;;;;;;5130959;27;19974;-83
2023/07/06 03:23:03;;;;;;;;;;;11.40;99.90;;;;;;5115248;27;19973;-80
2023/07/06 03:25:29;;;;;;;;;;;11.40;99.90;;;;;;5098034;28;20010;-81
2023/07/06 03:27:56;;;;;;;;;;;11.30;99.90;;;;;;5115147;28;19966;-80
2023/07/06 03:30:29;;;;;;;;;;;11.20;99.90;;;;;;5132885;27;19919;-81
2023/07/06 03:32:55;;;;;;;;;;;11.20;99.90;;;;;;5133323;28;20394;-81
2023/07/06 03:35:22;;;;;;;;;;;11.10;99.90;;;;;;5132934;28;19919;-83
2023/07/06 03:37:48;;;;;;;;;;;11.10;99.90;;;;;;5132277;28;19919;-81
2023/07/06 03:40:15;;;;;;;;;;;11.10;99.90;;;;;;5131946;28;19931;-82
2023/07/06 03:42:42;;;;;;;;;;;11.10;99.90;;;;;;5131909;28;19920;-84
2023/07/06 03:45:10;;;;;;;;;;;11.20;99.90;;;;;;5114746;28;19924;-82
2023/07/06 03:47:37;;;;;;;;;;;11.20;99.90;;;;;;5131779;28;19926;-79
2023/07/06 03:50:03;;;;;;;;;;;11.20;99.90;;;;;;5123229;28;19920;-82
2023/07/06 03:52:29;;;;;;;;;;;11.30;99.90;;;;;;5110531;28;20006;-80
2023/07/06 03:54:54;;;;;;;;;;;11.30;99.90;;;;;;5094470;28;19923;-78
2023/07/06 03:57:20;;;;;;;;;;;11.40;99.90;;;;;;5111244;28;19926;-82
2023/07/06 03:59:46;;;;;;;;;;;11.40;99.90;;;;;;5110833;28;20323;-82
2023/07/06 04:02:12;;;;;;;;;;;11.50;99.90;;;;;;5110809;28;19927;-81
2023/07/06 04:04:38;;;;;;;;;;;11.60;99.90;;;;;;5110785;28;19923;-80
2023/07/06 04:07:04;;;;;;;;;;;11.60;99.90;;;;;;5131294;28;19942;-80
2023/07/06 04:09:29;;;;;;;;;;;11.70;99.90;;;;;;5131218;28;19927;-81
2023/07/06 04:11:55;;;;;;;;;;;11.80;99.90;;;;;;5131655;28;19962;-83
2023/07/06 04:14:25;;;;;;;;;;;11.90;99.90;;;;;;5114763;28;19933;-82
2023/07/06 04:16:51;;;;;;;;;;;12.00;99.90;;;;;;5131465;28;19962;-78
2023/07/06 04:19:17;;;;;;;;;;;12.10;99.90;;;;;;5114855;28;19976;-83
2023/07/06 04:21:43;;;;;;;;;;;12.20;99.90;;;;;;5131384;28;19997;-78
2023/07/06 04:24:08;;;;;;;;;;;12.30;99.90;;;;;;5132106;28;20428;-80
2023/07/06 04:26:36;;;;;;;;;;;12.40;99.90;;;;;;5131288;28;19941;-80
2023/07/06 04:29:02;;;;;;;;;;;12.50;99.90;;;;;;5131903;28;19919;-81
2023/07/06 04:31:30;;;;;;;;;;;12.60;99.90;;;;;;5131305;28;19919;-79
2023/07/06 04:33:56;;;;;;;;;;;12.60;99.90;;;;;;5097113;28;20026;-76
2023/07/06 04:36:23;;;;;;;;;;;12.70;99.90;;;;;;5113851;28;19923;-79
2023/07/06 04:38:49;;;;;;;;;;;12.70;99.90;;;;;;5131056;28;19931;-78
2023/07/06 04:41:15;;;;;;;;;;;12.80;99.90;;;;;;5131594;28;19943;-84
2023/07/06 04:43:40;;;;;;;;;;;12.80;99.90;;;;;;5133848;27;19924;-83
2023/07/06 04:46:08;;;;;;;;;;;12.90;99.90;;;;;;5135025;27;19920;-79
2023/07/06 04:48:34;;;;;;;;;;;12.90;99.90;;;;;;5117592;27;19919;-80
2023/07/06 04:51:00;;;;;;;;;;;12.90;99.90;;;;;;5103443;28;19920;-82
2023/07/06 04:53:28;;;;;;;;;;;12.90;99.90;;;;;;5097292;28;19919;-82
2023/07/06 04:55:54;;;;;;;;;;;12.90;99.90;;;;;;5115222;28;19924;-81
2023/07/06 04:58:20;;;;;;;;;;;12.80;99.90;;;;;;5098174;28;20412;-80
2023/07/06 05:00:45;;;;;;;;;;;12.80;99.90;;;;;;5113865;28;20023;-84
2023/07/06 05:03:12;;;;;;;;;;;12.70;99.90;;;;;;5133757;27;19919;-80
2023/07/06 05:05:43;;;;;;;;;;;12.70;99.90;;;;;;5134965;27;19927;-79
2023/07/06 05:08:15;;;;;;;;;;;12.70;99.90;;;;;;5136057;27;19919;-78
2023/07/06 05:10:46;;;;;;;;;;;12.70;99.90;;;;;;5134670;27;19923;-79
2023/07/06 05:13:11;;;;;;;;;;;12.80;99.90;;;;;;5134683;27;19920;-82
2023/07/06 05:15:37;;;;;;;;;;;12.90;99.90;;;;;;5133978;27;19920;-83
2023/07/06 05:18:03;;;;;;;;;;;13.00;99.90;;;;;;5117427;27;19923;-78
2023/07/06 05:20:31;;;;;;;;;;;13.10;99.90;;;;;;5134341;27;20392;-77
2023/07/06 05:22:58;;;;;;;;;;;13.20;99.90;;;;;;5134910;27;20391;-79
2023/07/06 05:25:23;;;;;;;;;;;13.30;99.90;;;;;;5135978;27;19923;-81
2023/07/06 05:27:49;;;;;;;;;;;13.40;99.90;;;;;;5133827;27;19923;-79
2023/07/06 05:30:15;;;;;;;;;;;13.40;99.90;;;;;;5117510;27;19920;-79
2023/07/06 05:32:41;;;;;;;;;;;13.60;99.90;;;;;;5116760;27;19935;-85
2023/07/06 05:35:07;;;;;;;;;;;13.70;99.90;;;;;;5116973;27;20306;-79
2023/07/06 05:37:33;;;;;;;;;;;13.80;99.90;;;;;;5116502;27;20226;-80
2023/07/06 05:40:02;;;;;;;;;;;13.90;99.90;;;;;;5135171;27;19949;-82
2023/07/06 05:42:27;;;;;;;;;;;13.90;99.90;;;;;;5133950;27;19920;-80
2023/07/06 05:44:54;;;;;;;;;;;14.00;99.90;;;;;;5133454;27;19923;-79
2023/07/06 05:47:20;;;;;;;;;;;14.00;99.90;;;;;;5134863;27;19968;-82
2023/07/06 05:49:46;;;;;;;;;;;14.10;99.90;;;;;;5117395;27;20356;-79
2023/07/06 05:52:12;;;;;;;;;;;14.10;99.90;;;;;;5117783;27;19929;-81
2023/07/06 05:54:39;;;;;;;;;;;14.10;99.90;;;;;;5134581;27;19923;-80
2023/07/06 05:57:05;;;;;;;;;;;14.20;99.90;;;;;;5134046;27;19919;-83
2023/07/06 05:59:31;;;;;;;;;;;14.30;99.90;;;;;;5114718;27;19930;-83
2023/07/06 06:01:58;;;;;;;;;;;14.30;99.90;;;;;;5113117;28;19924;-83
2023/07/06 06:04:25;;;;;;;;;;;14.40;99.90;;;;;;5113226;28;19973;-85
2023/07/06 06:06:54;;;;;;;;;;;14.40;99.90;;;;;;5095580;28;19924;-82
2023/07/06 06:09:20;;;;;;;;;;;14.50;99.90;;;;;;5113722;28;20434;-83
2023/07/06 06:11:48;;;;;;;;;;;14.60;99.90;;;;;;5112642;28;19923;-80
2023/07/06 06:14:13;;;;;;;;;;;14.60;99.90;;;;;;5113381;28;19920;-81
2023/07/06 06:16:42;;;;;;;;;;;14.70;99.90;;;;;;5114615;28;19930;-77
2023/07/06 06:19:08;;;;;;;;;;;14.80;99.90;;;;;;5112619;28;20369;-81
2023/07/06 06:21:34;;;;;;;;;;;14.80;99.90;;;;;;5080008;28;19947;-85
2023/07/06 06:24:01;;;;;;;;;;;14.90;99.90;;;;;;5092618;28;20074;-82
2023/07/06 06:26:27;;;;;;;;;;;15.00;99.90;;;;;;5075551;28;20353;-82
2023/07/06 06:28:52;;;;;;;;;;;15.00;99.90;;;;;;5074790;28;20014;-80
2023/07/06 06:31:18;;;;;;;;;;;15.10;99.90;;;;;;5091884;28;20014;-80
2023/07/06 06:33:45;;;;;;;;;;;15.20;99.90;;;;;;5091329;28;19965;-82
2023/07/06 06:36:16;;;;;;;;;;;15.30;99.90;;;;;;5092100;28;19924;-84
2023/07/06 06:38:42;;;;;;;;;;;15.40;99.90;;;;;;5074936;28;19920;-80
2023/07/06 06:41:07;;;;;;;;;;;15.40;99.90;;;;;;5074890;28;19924;-80
2023/07/06 06:43:38;;;;;;;;;;;15.50;99.90;;;;;;5091605;28;19942;-80
2023/07/06 06:46:13;;;;;;;;;;;15.60;99.90;;;;;;5091526;28;19931;-80
2023/07/06 06:48:41;;;;;;;;;;;15.70;99.90;;;;;;5091627;28;19931;-79
2023/07/06 06:51:09;;;;;;;;;;;15.90;99.90;;;;;;5092058;28;20010;-83
2023/07/06 06:53:38;;;;;;;;;;;16.10;99.90;;;;;;5074598;28;20010;-86
2023/07/06 06:56:06;;;;;;;;;;;16.00;99.90;;;;;;5091894;28;19924;-75
2023/07/06 06:58:31;;;;;;;;;;;16.40;99.90;;;;;;5074907;28;19924;-80
2023/07/06 07:00:58;;;;;;;;;;;;;;;;;;5074381;28;20339;-82
2023/07/06 07:03:23;;;;;;;;;;;16.70;99.90;;;;;;5091600;28;19931;-80
2023/07/06 07:05:57;;;;;;;;;;;16.90;99.90;;;;;;5090991;28;19928;-81
2023/07/06 07:08:23;;;;;;;;;;;17.10;99.90;;;;;;5075166;28;19967;-77
2023/07/06 07:10:52;;;;;;;;;;;16.80;99.90;;;;;;5091182;28;19966;-80
2023/07/06 07:13:19;;;;;;;;;;;16.80;99.90;;;;;;5091130;28;19920;-77
2023/07/06 07:15:45;;;;;;;;;;;17.10;99.90;;;;;;5073952;28;20261;-79
2023/07/06 07:18:10;;;;;;;;;;;17.40;99.90;;;;;;5091079;28;19920;-83
2023/07/06 07:20:36;;;;;;;;;;;17.30;99.90;;;;;;5097480;28;19946;-78
2023/07/06 07:23:02;;;;;;;;;;;17.30;99.90;;;;;;5114946;28;20014;-82
2023/07/06 07:25:28;;;;;;;;;;;17.50;99.90;;;;;;5098092;27;19919;-82
2023/07/06 07:27:55;;;;;;;;;;;17.20;99.90;;;;;;5114379;28;19972;-80
2023/07/06 07:30:21;;;;;;;;;;;17.60;99.90;;;;;;5114752;28;19976;-82
2023/07/06 07:32:47;;;;;;;;;;;17.70;99.90;;;;;;5096996;28;20018;-80
2023/07/06 07:35:13;;;;;;;;;;;17.70;99.90;;;;;;5098202;28;19919;-84
2023/07/06 07:37:38;;;;;;;;;;;17.80;99.90;;;;;;5115279;28;19983;-79
2023/07/06 07:40:05;;;;;;;;;;;17.80;99.90;;;;;;5114551;28;20261;-79
2023/07/06 07:42:31;;;;;;;;;;;17.90;99.90;;;;;;5097819;28;19919;-82
2023/07/06 07:44:57;;;;;;;;;;;17.90;99.90;;;;;;5097288;28;20302;-81
2023/07/06 07:47:24;;;;;;;;;;;18.00;99.90;;;;;;5133375;28;19920;-86
2023/07/06 07:49:49;;;;;;;;;;;18.00;99.90;;;;;;5103183;27;19995;-83
2023/07/06 07:52:15;;;;;;;;;;;18.00;99.90;;;;;;5114790;28;20359;-80
2023/07/06 07:54:43;;;;;;;;;;;18.10;99.90;;;;;;5114734;28;20006;-82
2023/07/06 07:57:09;;;;;;;;;;;18.20;99.90;;;;;;5114699;28;19939;-80
2023/07/06 07:59:35;;;;;;;;;;;18.20;99.90;;;;;;5114131;28;20440;-83
2023/07/06 08:02:01;;;;;;;;;;;18.40;99.90;;;;;;5113838;28;19936;-80
2023/07/06 08:04:27;;;;;;;;;;;18.70;99.90;;;;;;5114600;28;19948;-84
2023/07/06 08:06:52;;;;;;;;;;;18.90;99.90;;;;;;5114024;28;20341;-79
2023/07/06 08:09:19;;;;;;;;;;;19.30;99.90;;;;;;5097637;28;20371;-81
2023/07/06 08:11:46;;;;;;;;;;;20.70;99.90;;;;;;5080973;28;20443;-81
2023/07/06 08:14:13;;;;;;;;;;;20.00;99.90;;;;;;5097186;28;19967;-80
2023/07/06 08:16:40;;;;;;;;;;;20.10;99.90;;;;;;5097528;28;19923;-80
2023/07/06 08:19:07;;;;;;;;;;;20.10;99.90;;;;;;5100650;27;19934;-82
2023/07/06 08:21:32;;;;;;;;;;;20.30;99.90;;;;;;5101077;27;19923;-83
2023/07/06 08:23:59;;;;;;;;;;;20.20;99.90;;;;;;5101395;27;19927;-80
2023/07/06 08:26:24;;;;;;;;;;;20.10;99.90;;;;;;5118818;27;19923;-82
2023/07/06 08:28:50;;;;;;;;;;;19.90;99.90;;;;;;5118020;27;19920;-83
2023/07/06 08:31:18;;;;;;;;;;;19.90;99.90;;;;;;5117920;27;19927;-79
2023/07/06 08:33:44;;;;;;;;;;;20.00;99.90;;;;;;5117952;27;19919;-79
2023/07/06 08:36:11;;;;;;;;;;;19.90;99.90;;;;;;5100973;27;20000;-80
2023/07/06 08:38:37;;;;;;;;;;;19.80;99.90;;;;;;5100982;27;19930;-79
2023/07/06 08:41:09;;;;;;;;;;;19.80;99.90;;;;;;5117845;27;19926;-82
2023/07/06 08:43:36;;;;;;;;;;;19.90;99.90;;;;;;5117983;27;20035;-78
2023/07/06 08:46:04;;;;;;;;;;;20.00;99.90;;;;;;5100835;27;19988;-81
2023/07/06 08:48:31;;;;;;;;;;;20.00;99.90;;;;;;5121350;27;19923;-81
2023/07/06 08:51:15;;;;;;;;;;;19.90;99.90;;;;;;5123482;27;19924;-82
2023/07/06 08:53:46;;;;;;;;;;;19.80;99.90;;;;;;5101039;27;19926;-81
2023/07/06 08:56:14;;;;;;;;;;;19.80;99.90;;;;;;5100199;27;20328;-80
2023/07/06 08:58:42;;;;;;;;;;;19.80;99.90;;;;;;5099936;27;19927;-81
2023/07/06 09:01:12;;;;;;;;;;;19.80;99.90;;;;;;5117395;27;19945;-80
2023/07/06 09:03:46;;;;;;;;;;;19.70;99.90;;;;;;5117590;27;20319;-83
2023/07/06 09:06:14;;;;;;;;;;;19.70;99.90;;;;;;5116905;27;19919;-79
2023/07/06 09:08:45;;;;;;;;;;;19.60;99.90;;;;;;5117312;27;19966;-81
2023/07/06 09:11:14;;;;;;;;;;;19.60;99.90;;;;;;5116815;27;19923;-80
2023/07/06 09:13:49;;;;;;;;;;;19.60;99.90;;;;;;5117571;27;20283;-82
2023/07/06 09:16:18;;;;;;;;;;;19.60;99.90;;;;;;5117272;27;19998;-81
2023/07/06 09:18:43;;;;;;;;;;;19.70;99.90;;;;;;5117118;27;19919;-79
2023/07/06 09:21:09;;;;;;;;;;;19.90;99.90;;;;;;5116741;27;19976;-82
2023/07/06 09:23:35;;;;;;;;;;;20.00;99.90;;;;;;5135065;27;19923;-80
2023/07/06 09:26:04;;;;;;;;;;;20.10;99.90;;;;;;5116630;27;19972;-79
2023/07/06 09:28:31;;;;;;;;;;;20.30;99.90;;;;;;5099594;27;20355;-77
2023/07/06 09:31:07;;;;;;;;;;;20.40;99.90;;;;;;5116339;27;19923;-78
2023/07/06 09:33:33;;;;;;;;;;;20.40;99.90;;;;;;5117134;27;19926;-80
2023/07/06 09:35:59;;;;;;;;;;;20.40;99.90;;;;;;5116428;27;19955;-82
2023/07/06 09:38:25;;;;;;;;;;;20.40;99.90;;;;;;5116859;27;19930;-77
2023/07/06 09:40:52;;;;;;;;;;;20.40;99.90;;;;;;5116616;27;20417;-82
2023/07/06 09:43:21;;;;;;;;;;;20.30;99.90;;;;;;5108494;27;19961;-77
2023/07/06 09:45:49;;;;;;;;;;;20.30;99.90;;;;;;5120414;27;19942;-79
2023/07/06 09:48:23;;;;;;;;;;;20.40;99.90;;;;;;5136963;27;20002;-82
2023/07/06 09:50:51;;;;;;;;;;;20.40;99.90;;;;;;5124762;27;19931;-79
2023/07/06 09:53:24;;;;;;;;;;;20.80;99.90;;;;;;5100599;27;19923;-80
2023/07/06 09:55:49;;;;;;;;;;;21.10;99.90;;;;;;5117245;27;19935;-82
2023/07/06 09:58:20;;;;;;;;;;;21.20;99.90;;;;;;5116193;27;19978;-81
2023/07/06 10:00:48;;;;;;;;;;;21.20;99.90;;;;;;5116303;27;19923;-78
2023/07/06 10:03:37;;;;;;;;;;;21.00;99.90;;;;;;5133356;27;19928;-81
2023/07/06 10:06:27;;;;;;;;;;;20.70;99.90;;;;;;5107354;27;19923;-78
2023/07/06 10:09:08;;;;;;;;;;;20.50;99.90;;;;;;5132986;27;19919;-79
2023/07/06 10:11:42;;;;;;;;;;;20.40;99.90;;;;;;5115758;27;19923;-81
2023/07/06 10:14:30;;;;;;;;;;;20.40;99.90;;;;;;5115433;27;19930;-80
2023/07/06 10:17:07;;;;;;;;;;;20.40;99.90;;;;;;5104482;27;19965;-82
2023/07/06 10:19:53;;;;;;;;;;;20.50;99.90;;;;;;5115941;27;20353;-78
2023/07/06 10:22:28;;;;;;;;;;;20.30;99.90;;;;;;5115141;27;20015;-81
2023/07/06 10:25:00;;;;;;;;;;;20.30;99.90;;;;;;5115853;27;19964;-78
2023/07/06 10:27:31;;;;;;;;;;;20.20;99.90;;;;;;5116172;27;20034;-79
2023/07/06 10:30:01;;;;;;;;;;;20.20;99.90;;;;;;5115879;27;20065;-80
2023/07/06 10:32:32;;;;;;;;;;;20.10;99.90;;;;;;5134122;27;19989;-78
2023/07/06 10:35:10;;;;;;;;;;;20.00;99.90;;;;;;5116374;27;20400;-80
2023/07/06 10:37:37;;;;;;;;;;;19.90;99.90;;;;;;5115619;27;19972;-79
2023/07/06 10:40:10;;;;;;;;;;;19.90;99.90;;;;;;5134965;27;20341;-78
2023/07/06 10:42:41;;;;;;;;;;;19.80;99.90;;;;;;5136225;27;20283;-81
2023/07/06 10:45:20;;;;;;;;;;;20.00;99.90;;;;;;5118352;27;19977;-83
2023/07/06 10:47:48;;;;;;;;;;;20.50;99.90;;;;;;5118782;27;19942;-79
2023/07/06 10:50:19;;;;;;;;;;;21.00;99.90;;;;;;5118362;27;19988;-80
2023/07/06 10:52:55;;;;;;;;;;;21.50;99.90;;;;;;5136191;27;19998;-81
2023/07/06 10:55:25;;;;;;;;;;;21.90;99.90;;;;;;5135858;27;20481;-82
2023/07/06 10:57:57;;;;;;;;;;;22.10;99.90;;;;;;5135767;27;19922;-79
2023/07/06 11:00:30;;;;;;;;;;;22.20;99.90;;;;;;5135384;27;19923;-82
2023/07/06 11:02:56;;;;;;;;;;;22.30;99.90;;;;;;5135570;27;19972;-81
2023/07/06 11:05:27;;;;;;;;;;;22.20;99.90;;;;;;5135093;27;20283;-79
2023/07/06 11:07:57;;;;;;;;;;;22.20;99.90;;;;;;5135670;27;19972;-82
2023/07/06 11:10:32;;;;;;;;;;;22.30;99.90;;;;;;5135510;27;19966;-78
2023/07/06 11:13:01;;;;;;;;;;;22.40;99.90;;;;;;5153884;27;20337;-79
2023/07/06 11:15:36;;;;;;;;;;;22.60;99.90;;;;;;5135221;27;19923;-80
2023/07/06 11:18:11;;;;;;;;;;;22.80;99.90;;;;;;5135680;27;20299;-80
2023/07/06 11:20:37;;;;;;;;;;;23.10;99.90;;;;;;5135177;27;19927;-80
2023/07/06 11:23:04;;;;;;;;;;;23.20;99.90;;;;;;5135305;27;19925;-80
2023/07/06 11:25:31;;;;;;;;;;;23.00;99.10;;;;;;5135200;27;20380;-78
2023/07/06 11:28:05;;;;;;;;;;;22.80;99.30;;;;;;5135991;27;19923;-80
2023/07/06 11:31:01;;;;;;;;;;;22.50;96.60;;;;;;5135610;27;19930;-77
2023/07/06 11:33:50;;;;;;;;;;;22.10;96.40;;;;;;5096664;27;19923;-78
2023/07/06 11:36:20;;;;;;;;;;;21.60;97.30;;;;;;5104126;27;19919;-79
2023/07/06 11:38:45;;;;;;;;;;;21.30;98.50;;;;;;5135180;27;19919;-80
2023/07/06 11:41:13;;;;;;;;;;;21.00;98.60;;;;;;5135070;27;20271;-84
2023/07/06 11:43:50;;;;;;;;;;;20.80;99.90;;;;;;5135662;27;19919;-80
2023/07/06 11:46:31;;;;;;;;;;;20.50;99.90;;;;;;5134919;27;20327;-82
2023/07/06 11:49:01;;;;;;;;;;;20.40;99.90;;;;;;5135747;27;19926;-79
2023/07/06 11:51:28;;;;;;;;;;;20.30;99.90;;;;;;5115474;27;20690;-79
2023/07/06 11:53:57;;;;;;;;;;;20.20;99.90;;;;;;5118879;27;19923;-79
2023/07/06 11:59:38;;;;;;;;;;;20.30;99.90;;;;;;5095580;27;19932;-79
2023/07/06 12:02:26;;;;;;;;;;;20.40;99.90;;;;;;5118743;27;20241;-78
2023/07/06 12:04:51;;;;;;;;;;;20.50;99.90;;;;;;5136691;27;19972;-79
2023/07/06 12:07:30;;;;;;;;;;;20.70;99.90;;;;;;5118207;27;19919;-78
2023/07/06 12:10:00;;;;;;;;;;;21.00;99.90;;;;;;5118832;27;19923;-83
2023/07/06 12:12:28;;;;;;;;;;;21.30;99.90;;;;;;5101131;27;19920;-77
2023/07/06 12:14:55;;;;;;;;;;;21.60;99.90;;;;;;5101507;27;19924;-82
2023/07/06 12:17:22;;;;;;;;;;;21.90;99.90;;;;;;5101216;27;19968;-78
2023/07/06 12:19:48;;;;;;;;;;;22.00;99.90;;;;;;5117900;27;19928;-82
2023/07/06 12:22:15;;;;;;;;;;;21.80;99.90;;;;;;5100523;27;20372;-80
2023/07/06 12:24:41;;;;;;;;;;;21.60;99.90;;;;;;5118402;27;19920;-81
2023/07/06 12:27:12;;;;;;;;;;;21.50;99.90;;;;;;5101597;27;20385;-80
2023/07/06 12:29:38;;;;;;;;;;;21.50;99.90;;;;;;5100928;27;19920;-81
2023/07/06 12:32:07;;;;;;;;;;;21.70;99.90;;;;;;5123692;27;19924;-78
2023/07/06 12:34:37;;;;;;;;;;;21.70;99.90;;;;;;5118315;27;19919;-77
2023/07/06 12:37:03;;;;;;;;;;;21.70;99.90;;;;;;5117914;27;19919;-80
2023/07/06 12:39:31;;;;;;;;;;;21.90;99.90;;;;;;5117627;27;19935;-80
2023/07/06 12:41:57;;;;;;;;;;;22.00;99.90;;;;;;5117955;27;19966;-80
2023/07/06 12:44:26;;;;;;;;;;;22.10;99.90;;;;;;5100327;27;19988;-81
2023/07/06 12:46:53;;;;;;;;;;;22.50;99.90;;;;;;5125649;27;19920;-80
2023/07/06 12:49:23;;;;;;;;;;;22.90;99.90;;;;;;5119463;27;19933;-82
2023/07/06 12:51:54;;;;;;;;;;;23.50;99.90;;;;;;5138298;27;19919;-82
2023/07/06 12:54:26;;;;;;;;;;;23.80;99.90;;;;;;5156582;27;20018;-80
2023/07/06 12:56:58;;;;;;;;;;;23.60;99.90;;;;;;5157887;27;19925;-80
2023/07/06 12:59:25;;;;;;;;;;;23.20;99.90;;;;;;5138093;27;19926;-78
2023/07/06 13:01:52;;;;;;;;;;;23.00;99.60;;;;;;5137949;27;19962;-82
2023/07/06 13:04:17;;;;;;;;;;;23.30;99.90;;;;;;5120375;27;19969;-81
2023/07/06 13:06:45;;;;;;;;;;;23.60;99.90;;;;;;5137807;27;20360;-78
2023/07/06 13:09:18;;;;;;;;;;;24.20;99.90;;;;;;5137607;27;19922;-78
2023/07/06 13:11:53;;;;;;;;;;;24.50;99.90;;;;;;5138008;27;20272;-81
2023/07/06 13:14:20;;;;;;;;;;;24.60;99.90;;;;;;5137630;27;20450;-78
2023/07/06 13:16:51;;;;;;;;;;;24.80;99.90;;;;;;5138037;27;19923;-81
2023/07/06 13:19:16;;;;;;;;;;;25.00;99.90;;;;;;5137104;27;19979;-82
2023/07/06 13:21:42;;;;;;;;;;;24.90;99.90;;;;;;5137500;27;19923;-80
2023/07/06 13:24:13;;;;;;;;;;;24.90;99.90;;;;;;5137722;27;19919;-83
2023/07/06 13:26:39;;;;;;;;;;;25.10;97.30;;;;;;5137726;27;19925;-81
2023/07/06 13:29:05;;;;;;;;;;;25.00;95.60;;;;;;5120235;27;20002;-84
2023/07/06 13:31:31;;;;;;;;;;;24.90;98.40;;;;;;5120534;27;19930;-83
2023/07/06 13:33:57;;;;;;;;;;;24.80;99.60;;;;;;5137759;27;19922;-81
2023/07/06 13:36:25;;;;;;;;;;;24.60;95.00;;;;;;5138109;27;20393;-81
2023/07/06 13:38:51;;;;;;;;;;;24.40;93.50;;;;;;5138256;27;19919;-81
2023/07/06 13:41:18;;;;;;;;;;;24.30;95.30;;;;;;5137979;27;19919;-83
2023/07/06 13:43:45;;;;;;;;;;;24.30;94.50;;;;;;5138525;27;20317;-82
2023/07/06 13:46:10;;;;;;;;;;;24.50;94.60;;;;;;5137542;27;19919;-80
2023/07/06 13:48:37;;;;;;;;;;;24.30;93.60;;;;;;5137363;27;19929;-82
2023/07/06 13:51:04;;;;;;;;;;;24.10;92.50;;;;;;5136755;27;19918;-80
2023/07/06 13:53:29;;;;;;;;;;;24.30;94.70;;;;;;5136963;27;20350;-81
2023/07/06 13:55:55;;;;;;;;;;;24.30;92.80;;;;;;5137228;27;19925;-80
2023/07/06 13:58:22;;;;;;;;;;;24.20;92.90;;;;;;5136466;27;19963;-80
2023/07/06 14:00:49;;;;;;;;;;;24.20;93.50;;;;;;5136744;27;20595;-80
2023/07/06 14:03:17;;;;;;;;;;;24.10;92.80;;;;;;5136853;27;19919;-79
2023/07/06 14:05:43;;;;;;;;;;;23.90;91.90;;;;;;5137484;27;19919;-81
2023/07/06 14:08:09;;;;;;;;;;;23.70;91.60;;;;;;5155987;27;19926;-80
2023/07/06 14:10:35;;;;;;;;;;;23.90;91.70;;;;;;5137360;27;19976;-80
2023/07/06 14:13:01;;;;;;;;;;;24.00;91.50;;;;;;5136979;27;20405;-81
2023/07/06 14:15:26;;;;;;;;;;;23.80;91.40;;;;;;5119114;27;19919;-81
2023/07/06 14:17:52;;;;;;;;;;;23.70;93.30;;;;;;5136970;27;20394;-82
2023/07/06 14:20:18;;;;;;;;;;;23.70;92.50;;;;;;5136108;27;19926;-79
2023/07/06 14:22:44;;;;;;;;;;;23.80;91.60;;;;;;5136456;27;19946;-80
2023/07/06 14:25:17;;;;;;;;;;;23.80;91.80;;;;;;5121849;27;19928;-81
2023/07/06 14:27:43;;;;;;;;;;;23.70;90.70;;;;;;5099653;27;19923;-82
2023/07/06 14:30:10;;;;;;;;;;;23.50;91.00;;;;;;5116161;27;20393;-79